sensor_id;sensor_type;location;lat;lon;timestamp;temperature;humidity
36444;DHT22;24692;45.642;13.806;2023-02-18T00:01:00;8.90;99.90
36444;DHT22;24692;45.642;13.806;2023-02-18T00:03:27;8.80;99.90
36444;DHT22;24692;45.642;13.806;2023-02-18T00:05:53;8.80;99.90
36444;DHT22;24692;45.642;13.806;2023-02-18T00:08:20;8.80;99.90
36444;DHT22;24692;45.642;13.806;2023-02-18T00:10:46;8.90;99.90
36444;DHT22;24692;45.642;13.806;2023-02-18T00:13:12;9.00;99.90
36444;DHT22;24692;45.642;13.806;2023-02-18T00:15:38;9.00;99.90
36444;DHT22;24692;45.642;13.806;2023-02-18T00:18:05;9.00;99.90
36444;DHT22;24692;45.642;13.806;2023-02-18T00:20:31;9.00;99.90
36444;DHT22;24692;45.642;13.806;2023-02-18T00:23:01;9.00;99.90
36444;DHT22;24692;45.642;13.806;2023-02-18T00:25:27;8.90;99.90
36444;DHT22;24692;45.642;13.806;2023-02-18T00:27:53;9.00;99.90
36444;DHT22;24692;45.642;13.806;2023-02-18T00:30:19;8.90;99.90
36444;DHT22;24692;45.642;13.806;2023-02-18T00:32:45;9.00;99.90
36444;DHT22;24692;45.642;13.806;2023-02-18T00:35:10;9.00;99.90
36444;DHT22;24692;45.642;13.806;2023-02-18T00:37:36;9.10;99.90
36444;DHT22;24692;45.642;13.806;2023-02-18T00:40:02;9.10;99.90
36444;DHT22;24692;45.642;13.806;2023-02-18T00:42:28;9.10;99.90
36444;DHT22;24692;45.642;13.806;2023-02-18T00:44:53;9.10;99.90
36444;DHT22;24692;45.642;13.806;2023-02-18T00:47:19;9.10;99.90
36444;DHT22;24692;45.642;13.806;2023-02-18T00:49:45;9.10;99.90
36444;DHT22;24692;45.642;13.806;2023-02-18T00:52:10;9.20;99.90
36444;DHT22;24692;45.642;13.806;2023-02-18T00:54:36;9.20;99.90
36444;DHT22;24692;45.642;13.806;2023-02-18T00:57:02;9.20;99.90
36444;DHT22;24692;45.642;13.806;2023-02-18T00:59:27;9.30;99.90
36444;DHT22;24692;45.642;13.806;2023-02-18T01:01:53;9.40;99.90
36444;DHT22;24692;45.642;13.806;2023-02-18T01:04:19;9.40;99.90
36444;DHT22;24692;45.642;13.806;2023-02-18T01:06:44;9.50;99.90
36444;DHT22;24692;45.642;13.806;2023-02-18T01:09:10;9.60;99.90
36444;DHT22;24692;45.642;13.806;2023-02-18T01:11:35;9.60;99.90
36444;DHT22;24692;45.642;13.806;2023-02-18T01:14:02;9.60;99.90
36444;DHT22;24692;45.642;13.806;2023-02-18T01:16:28;9.60;99.90
36444;DHT22;24692;45.642;13.806;2023-02-18T01:18:53;9.50;99.90
36444;DHT22;24692;45.642;13.806;2023-02-18T01:21:19;9.50;99.90
36444;DHT22;24692;45.642;13.806;2023-02-18T01:23:45;9.50;99.90
36444;DHT22;24692;45.642;13.806;2023-02-18T01:26:11;9.40;99.90
36444;DHT22;24692;45.642;13.806;2023-02-18T01:28:37;9.40;99.90
36444;DHT22;24692;45.642;13.806;2023-02-18T01:31:06;9.40;99.90
36444;DHT22;24692;45.642;13.806;2023-02-18T01:33:33;9.50;99.90
36444;DHT22;24692;45.642;13.806;2023-02-18T01:35:59;9.40;99.90
36444;DHT22;24692;45.642;13.806;2023-02-18T01:38:24;9.40;99.90
36444;DHT22;24692;45.642;13.806;2023-02-18T01:40:51;9.40;99.90
36444;DHT22;24692;45.642;13.806;2023-02-18T01:43:18;9.40;99.90
36444;DHT22;24692;45.642;13.806;2023-02-18T01:45:58;9.40;99.90
36444;DHT22;24692;45.642;13.806;2023-02-18T01:51:14;9.20;99.90
36444;DHT22;24692;45.642;13.806;2023-02-18T01:56:39;9.30;99.90
36444;DHT22;24692;45.642;13.806;2023-02-18T01:59:12;9.40;99.90
36444;DHT22;24692;45.642;13.806;2023-02-18T02:01:39;9.50;99.90
36444;DHT22;24692;45.642;13.806;2023-02-18T02:04:06;9.50;99.90
36444;DHT22;24692;45.642;13.806;2023-02-18T02:06:32;9.50;99.90
36444;DHT22;24692;45.642;13.806;2023-02-18T02:09:00;9.60;99.90
36444;DHT22;24692;45.642;13.806;2023-02-18T02:17:00;9.60;99.90
36444;DHT22;24692;45.642;13.806;2023-02-18T02:31:13;9.60;99.90
36444;DHT22;24692;45.642;13.806;2023-02-18T02:41:42;9.60;99.90
36444;DHT22;24692;45.642;13.806;2023-02-18T02:44:20;9.60;99.90
36444;DHT22;24692;45.642;13.806;2023-02-18T02:46:51;9.50;99.90
36444;DHT22;24692;45.642;13.806;2023-02-18T02:49:31;9.50;99.90
36444;DHT22;24692;45.642;13.806;2023-02-18T02:52:18;9.60;99.90
36444;DHT22;24692;45.642;13.806;2023-02-18T02:54:46;9.70;99.90
36444;DHT22;24692;45.642;13.806;2023-02-18T02:59:42;9.70;99.90
36444;DHT22;24692;45.642;13.806;2023-02-18T03:02:23;9.80;99.90
36444;DHT22;24692;45.642;13.806;2023-02-18T03:11:03;9.90;99.90
36444;DHT22;24692;45.642;13.806;2023-02-18T03:13:56;9.90;99.90
36444;DHT22;24692;45.642;13.806;2023-02-18T03:19:21;10.00;99.90
36444;DHT22;24692;45.642;13.806;2023-02-18T03:24:34;10.10;99.90
36444;DHT22;24692;45.642;13.806;2023-02-18T03:27:26;10.10;99.90
36444;DHT22;24692;45.642;13.806;2023-02-18T03:32:35;10.10;99.90
36444;DHT22;24692;45.642;13.806;2023-02-18T03:35:16;10.10;99.90
36444;DHT22;24692;45.642;13.806;2023-02-18T03:37:47;10.20;99.90
36444;DHT22;24692;45.642;13.806;2023-02-18T03:40:13;10.20;99.90
36444;DHT22;24692;45.642;13.806;2023-02-18T03:42:40;10.20;99.90
36444;DHT22;24692;45.642;13.806;2023-02-18T03:45:05;10.30;99.90
36444;DHT22;24692;45.642;13.806;2023-02-18T03:47:32;10.30;99.90
36444;DHT22;24692;45.642;13.806;2023-02-18T03:49:57;10.20;99.90
36444;DHT22;24692;45.642;13.806;2023-02-18T03:52:23;10.20;99.90
36444;DHT22;24692;45.642;13.806;2023-02-18T03:54:49;10.20;99.90
36444;DHT22;24692;45.642;13.806;2023-02-18T03:57:15;10.20;99.90
36444;DHT22;24692;45.642;13.806;2023-02-18T03:59:41;10.20;99.90
36444;DHT22;24692;45.642;13.806;2023-02-18T04:02:06;10.30;99.90
36444;DHT22;24692;45.642;13.806;2023-02-18T04:04:32;10.20;99.90
36444;DHT22;24692;45.642;13.806;2023-02-18T04:06:57;10.10;99.90
36444;DHT22;24692;45.642;13.806;2023-02-18T04:09:23;10.00;99.90
36444;DHT22;24692;45.642;13.806;2023-02-18T04:11:49;9.80;99.90
36444;DHT22;24692;45.642;13.806;2023-02-18T04:14:14;9.80;99.90
36444;DHT22;24692;45.642;13.806;2023-02-18T04:16:40;9.70;99.90
36444;DHT22;24692;45.642;13.806;2023-02-18T04:19:06;9.80;99.90
36444;DHT22;24692;45.642;13.806;2023-02-18T04:21:32;9.80;99.90
36444;DHT22;24692;45.642;13.806;2023-02-18T04:23:58;9.80;99.90
36444;DHT22;24692;45.642;13.806;2023-02-18T04:26:24;9.90;99.90
36444;DHT22;24692;45.642;13.806;2023-02-18T04:28:50;9.90;99.90
36444;DHT22;24692;45.642;13.806;2023-02-18T04:31:16;10.00;99.90
36444;DHT22;24692;45.642;13.806;2023-02-18T04:33:42;10.10;99.90
36444;DHT22;24692;45.642;13.806;2023-02-18T04:36:08;10.10;99.90
36444;DHT22;24692;45.642;13.806;2023-02-18T04:38:33;10.20;99.90
36444;DHT22;24692;45.642;13.806;2023-02-18T04:40:59;10.20;99.90
36444;DHT22;24692;45.642;13.806;2023-02-18T04:43:25;10.20;99.90
36444;DHT22;24692;45.642;13.806;2023-02-18T04:45:50;10.20;99.90
36444;DHT22;24692;45.642;13.806;2023-02-18T04:48:16;10.30;99.90
36444;DHT22;24692;45.642;13.806;2023-02-18T04:50:43;10.20;99.90
36444;DHT22;24692;45.642;13.806;2023-02-18T04:53:09;10.30;99.90
36444;DHT22;24692;45.642;13.806;2023-02-18T04:55:34;10.30;99.90
36444;DHT22;24692;45.642;13.806;2023-02-18T04:58:00;10.30;99.90
36444;DHT22;24692;45.642;13.806;2023-02-18T05:00:26;10.30;99.90
36444;DHT22;24692;45.642;13.806;2023-02-18T05:02:52;10.30;99.90
36444;DHT22;24692;45.642;13.806;2023-02-18T05:05:18;10.30;99.90
36444;DHT22;24692;45.642;13.806;2023-02-18T05:07:44;10.30;99.90
36444;DHT22;24692;45.642;13.806;2023-02-18T05:10:13;10.30;99.90
36444;DHT22;24692;45.642;13.806;2023-02-18T05:12:39;10.40;99.90
36444;DHT22;24692;45.642;13.806;2023-02-18T05:15:05;10.40;99.90
36444;DHT22;24692;45.642;13.806;2023-02-18T05:17:31;10.50;99.90
36444;DHT22;24692;45.642;13.806;2023-02-18T05:19:57;10.50;99.90
36444;DHT22;24692;45.642;13.806;2023-02-18T05:22:23;10.60;99.90
36444;DHT22;24692;45.642;13.806;2023-02-18T05:24:48;10.50;99.90
36444;DHT22;24692;45.642;13.806;2023-02-18T05:27:14;10.40;99.90
36444;DHT22;24692;45.642;13.806;2023-02-18T05:29:40;10.40;99.90
36444;DHT22;24692;45.642;13.806;2023-02-18T05:32:05;10.40;99.90
36444;DHT22;24692;45.642;13.806;2023-02-18T05:34:31;10.40;99.90
36444;DHT22;24692;45.642;13.806;2023-02-18T05:36:56;10.50;99.90
36444;DHT22;24692;45.642;13.806;2023-02-18T05:39:22;10.50;99.90
36444;DHT22;24692;45.642;13.806;2023-02-18T05:41:48;10.50;99.90
36444;DHT22;24692;45.642;13.806;2023-02-18T05:44:13;10.50;99.90
36444;DHT22;24692;45.642;13.806;2023-02-18T05:46:57;10.60;99.90
36444;DHT22;24692;45.642;13.806;2023-02-18T05:49:23;10.60;99.90
36444;DHT22;24692;45.642;13.806;2023-02-18T05:51:49;10.60;99.90
36444;DHT22;24692;45.642;13.806;2023-02-18T05:54:14;10.60;99.90
36444;DHT22;24692;45.642;13.806;2023-02-18T05:56:40;10.50;99.90
36444;DHT22;24692;45.642;13.806;2023-02-18T05:59:06;10.50;99.90
36444;DHT22;24692;45.642;13.806;2023-02-18T06:01:31;10.50;99.90
36444;DHT22;24692;45.642;13.806;2023-02-18T06:03:57;10.50;99.90
36444;DHT22;24692;45.642;13.806;2023-02-18T06:06:24;10.40;99.90
36444;DHT22;24692;45.642;13.806;2023-02-18T06:08:50;10.40;99.90
36444;DHT22;24692;45.642;13.806;2023-02-18T06:11:15;10.30;99.90
36444;DHT22;24692;45.642;13.806;2023-02-18T06:13:41;10.30;99.90
36444;DHT22;24692;45.642;13.806;2023-02-18T06:16:06;10.40;99.90
36444;DHT22;24692;45.642;13.806;2023-02-18T06:18:32;10.20;99.90
36444;DHT22;24692;45.642;13.806;2023-02-18T06:20:58;10.20;99.90
36444;DHT22;24692;45.642;13.806;2023-02-18T06:23:23;10.20;99.90
36444;DHT22;24692;45.642;13.806;2023-02-18T06:25:49;10.30;99.90
36444;DHT22;24692;45.642;13.806;2023-02-18T06:28:16;10.40;99.90
36444;DHT22;24692;45.642;13.806;2023-02-18T06:30:41;10.40;99.90
36444;DHT22;24692;45.642;13.806;2023-02-18T06:33:07;10.50;99.90
36444;DHT22;24692;45.642;13.806;2023-02-18T06:35:32;10.60;99.90
36444;DHT22;24692;45.642;13.806;2023-02-18T06:37:59;10.60;99.90
36444;DHT22;24692;45.642;13.806;2023-02-18T06:40:25;10.60;99.90
36444;DHT22;24692;45.642;13.806;2023-02-18T06:42:50;10.60;99.90
36444;DHT22;24692;45.642;13.806;2023-02-18T06:45:16;10.60;99.90
36444;DHT22;24692;45.642;13.806;2023-02-18T06:47:41;10.70;99.90
36444;DHT22;24692;45.642;13.806;2023-02-18T06:50:07;10.60;99.90
36444;DHT22;24692;45.642;13.806;2023-02-18T06:52:33;10.50;99.90
36444;DHT22;24692;45.642;13.806;2023-02-18T06:54:59;10.50;99.90
36444;DHT22;24692;45.642;13.806;2023-02-18T06:57:25;10.50;99.90
36444;DHT22;24692;45.642;13.806;2023-02-18T06:59:51;10.50;99.90
36444;DHT22;24692;45.642;13.806;2023-02-18T07:02:16;10.60;99.90
36444;DHT22;24692;45.642;13.806;2023-02-18T07:04:42;10.50;99.90
36444;DHT22;24692;45.642;13.806;2023-02-18T07:07:09;10.50;99.90
36444;DHT22;24692;45.642;13.806;2023-02-18T07:09:35;10.50;99.90
36444;DHT22;24692;45.642;13.806;2023-02-18T07:12:01;10.50;99.90
36444;DHT22;24692;45.642;13.806;2023-02-18T07:14:27;10.60;99.90
36444;DHT22;24692;45.642;13.806;2023-02-18T07:16:52;10.60;99.90
36444;DHT22;24692;45.642;13.806;2023-02-18T07:19:18;10.60;99.90
36444;DHT22;24692;45.642;13.806;2023-02-18T07:21:45;10.60;99.90
36444;DHT22;24692;45.642;13.806;2023-02-18T07:24:12;10.70;99.90
36444;DHT22;24692;45.642;13.806;2023-02-18T07:26:37;10.70;99.90
36444;DHT22;24692;45.642;13.806;2023-02-18T07:29:03;10.80;99.90
36444;DHT22;24692;45.642;13.806;2023-02-18T07:31:29;10.80;99.90
36444;DHT22;24692;45.642;13.806;2023-02-18T07:33:54;10.80;99.90
36444;DHT22;24692;45.642;13.806;2023-02-18T07:36:20;10.80;99.90
36444;DHT22;24692;45.642;13.806;2023-02-18T07:38:46;10.90;99.90
36444;DHT22;24692;45.642;13.806;2023-02-18T07:41:21;10.90;99.90
36444;DHT22;24692;45.642;13.806;2023-02-18T07:43:47;10.90;99.90
36444;DHT22;24692;45.642;13.806;2023-02-18T07:46:13;10.90;99.90
36444;DHT22;24692;45.642;13.806;2023-02-18T07:48:39;11.00;99.90
36444;DHT22;24692;45.642;13.806;2023-02-18T07:51:06;11.00;99.90
36444;DHT22;24692;45.642;13.806;2023-02-18T07:53:32;10.90;99.90
36444;DHT22;24692;45.642;13.806;2023-02-18T07:55:59;11.00;99.90
36444;DHT22;24692;45.642;13.806;2023-02-18T07:58:30;11.00;99.90
36444;DHT22;24692;45.642;13.806;2023-02-18T08:00:56;11.10;99.90
36444;DHT22;24692;45.642;13.806;2023-02-18T08:03:25;11.10;99.90
36444;DHT22;24692;45.642;13.806;2023-02-18T08:05:51;11.20;99.90
36444;DHT22;24692;45.642;13.806;2023-02-18T08:08:21;11.30;99.90
36444;DHT22;24692;45.642;13.806;2023-02-18T08:10:47;11.30;99.90
36444;DHT22;24692;45.642;13.806;2023-02-18T08:13:13;11.40;99.90
36444;DHT22;24692;45.642;13.806;2023-02-18T08:15:39;11.40;99.90
36444;DHT22;24692;45.642;13.806;2023-02-18T08:18:07;11.50;99.90
36444;DHT22;24692;45.642;13.806;2023-02-18T08:20:37;11.40;99.90
36444;DHT22;24692;45.642;13.806;2023-02-18T08:23:03;11.30;99.90
36444;DHT22;24692;45.642;13.806;2023-02-18T08:25:29;11.40;99.90
36444;DHT22;24692;45.642;13.806;2023-02-18T08:27:55;11.40;99.90
36444;DHT22;24692;45.642;13.806;2023-02-18T08:30:21;11.40;99.90
36444;DHT22;24692;45.642;13.806;2023-02-18T08:32:47;11.40;99.90
36444;DHT22;24692;45.642;13.806;2023-02-18T08:35:13;11.50;99.90
36444;DHT22;24692;45.642;13.806;2023-02-18T08:37:38;11.50;99.90
36444;DHT22;24692;45.642;13.806;2023-02-18T08:40:05;11.60;99.90
36444;DHT22;24692;45.642;13.806;2023-02-18T08:42:31;11.50;99.90
36444;DHT22;24692;45.642;13.806;2023-02-18T08:44:56;11.50;99.90
36444;DHT22;24692;45.642;13.806;2023-02-18T08:47:22;11.50;99.90
36444;DHT22;24692;45.642;13.806;2023-02-18T08:49:48;11.40;99.90
36444;DHT22;24692;45.642;13.806;2023-02-18T08:52:13;11.30;99.90
36444;DHT22;24692;45.642;13.806;2023-02-18T08:54:39;11.30;99.90
36444;DHT22;24692;45.642;13.806;2023-02-18T08:57:05;11.40;99.90
36444;DHT22;24692;45.642;13.806;2023-02-18T08:59:30;11.70;99.90
36444;DHT22;24692;45.642;13.806;2023-02-18T09:01:56;11.80;99.90
36444;DHT22;24692;45.642;13.806;2023-02-18T09:04:22;11.90;99.90
36444;DHT22;24692;45.642;13.806;2023-02-18T09:06:48;12.00;99.90
36444;DHT22;24692;45.642;13.806;2023-02-18T09:09:15;12.10;99.90
36444;DHT22;24692;45.642;13.806;2023-02-18T09:11:41;12.20;99.90
36444;DHT22;24692;45.642;13.806;2023-02-18T09:14:07;12.30;99.90
36444;DHT22;24692;45.642;13.806;2023-02-18T09:16:33;12.30;99.90
36444;DHT22;24692;45.642;13.806;2023-02-18T09:18:58;12.40;99.90
36444;DHT22;24692;45.642;13.806;2023-02-18T09:21:25;12.50;99.90
36444;DHT22;24692;45.642;13.806;2023-02-18T09:23:51;12.50;99.90
36444;DHT22;24692;45.642;13.806;2023-02-18T09:26:19;12.70;99.90
36444;DHT22;24692;45.642;13.806;2023-02-18T09:28:48;12.70;99.90
36444;DHT22;24692;45.642;13.806;2023-02-18T09:31:18;12.70;99.90
36444;DHT22;24692;45.642;13.806;2023-02-18T09:33:51;12.70;99.90
36444;DHT22;24692;45.642;13.806;2023-02-18T09:36:17;12.70;99.90
36444;DHT22;24692;45.642;13.806;2023-02-18T09:38:43;12.80;99.90
36444;DHT22;24692;45.642;13.806;2023-02-18T09:43:58;13.00;99.90
36444;DHT22;24692;45.642;13.806;2023-02-18T09:46:35;13.00;99.90
36444;DHT22;24692;45.642;13.806;2023-02-18T09:49:10;13.10;99.90
36444;DHT22;24692;45.642;13.806;2023-02-18T09:51:36;13.20;99.90
36444;DHT22;24692;45.642;13.806;2023-02-18T09:54:02;13.30;99.90
36444;DHT22;24692;45.642;13.806;2023-02-18T09:56:31;13.40;99.90
36444;DHT22;24692;45.642;13.806;2023-02-18T09:58:58;13.40;99.90
36444;DHT22;24692;45.642;13.806;2023-02-18T10:01:33;13.40;99.90
36444;DHT22;24692;45.642;13.806;2023-02-18T10:04:04;13.50;99.90
36444;DHT22;24692;45.642;13.806;2023-02-18T10:06:33;13.60;99.90
36444;DHT22;24692;45.642;13.806;2023-02-18T10:09:17;13.30;99.90
36444;DHT22;24692;45.642;13.806;2023-02-18T10:11:47;13.60;99.90
36444;DHT22;24692;45.642;13.806;2023-02-18T10:14:14;13.70;99.90
36444;DHT22;24692;45.642;13.806;2023-02-18T10:16:40;13.80;99.90
36444;DHT22;24692;45.642;13.806;2023-02-18T10:19:30;14.00;99.90
36444;DHT22;24692;45.642;13.806;2023-02-18T10:21:59;14.10;99.90
36444;DHT22;24692;45.642;13.806;2023-02-18T10:24:30;14.10;99.90
36444;DHT22;24692;45.642;13.806;2023-02-18T10:26:57;14.00;99.90
36444;DHT22;24692;45.642;13.806;2023-02-18T10:29:24;13.90;99.90
36444;DHT22;24692;45.642;13.806;2023-02-18T10:32:06;13.90;99.90
36444;DHT22;24692;45.642;13.806;2023-02-18T10:40:17;13.90;99.90
36444;DHT22;24692;45.642;13.806;2023-02-18T10:51:27;13.40;99.90
36444;DHT22;24692;45.642;13.806;2023-02-18T10:53:54;13.60;99.90
36444;DHT22;24692;45.642;13.806;2023-02-18T10:59:19;14.00;99.90
36444;DHT22;24692;45.642;13.806;2023-02-18T11:01:45;14.00;99.90
36444;DHT22;24692;45.642;13.806;2023-02-18T11:04:19;14.00;99.90
36444;DHT22;24692;45.642;13.806;2023-02-18T11:06:47;13.90;99.90
36444;DHT22;24692;45.642;13.806;2023-02-18T11:12:03;14.20;99.90
36444;DHT22;24692;45.642;13.806;2023-02-18T11:14:40;14.40;99.90
36444;DHT22;24692;45.642;13.806;2023-02-18T11:19:58;14.60;99.90
36444;DHT22;24692;45.642;13.806;2023-02-18T11:22:28;14.70;99.90
36444;DHT22;24692;45.642;13.806;2023-02-18T11:24:56;14.60;99.90
36444;DHT22;24692;45.642;13.806;2023-02-18T11:27:27;14.20;99.90
36444;DHT22;24692;45.642;13.806;2023-02-18T11:30:00;13.90;99.90
36444;DHT22;24692;45.642;13.806;2023-02-18T11:32:27;13.60;99.90
36444;DHT22;24692;45.642;13.806;2023-02-18T11:34:54;13.60;99.90
36444;DHT22;24692;45.642;13.806;2023-02-18T11:37:20;13.50;99.90
36444;DHT22;24692;45.642;13.806;2023-02-18T11:39:49;13.40;99.90
36444;DHT22;24692;45.642;13.806;2023-02-18T11:42:19;13.30;99.90
36444;DHT22;24692;45.642;13.806;2023-02-18T11:44:58;13.30;99.90
36444;DHT22;24692;45.642;13.806;2023-02-18T11:47:26;13.00;99.90
36444;DHT22;24692;45.642;13.806;2023-02-18T11:50:15;13.00;99.90
36444;DHT22;24692;45.642;13.806;2023-02-18T11:52:44;12.80;99.90
36444;DHT22;24692;45.642;13.806;2023-02-18T11:58:03;12.50;99.90
36444;DHT22;24692;45.642;13.806;2023-02-18T12:00:50;12.40;99.90
36444;DHT22;24692;45.642;13.806;2023-02-18T12:04:12;12.50;99.90
36444;DHT22;24692;45.642;13.806;2023-02-18T12:06:26;12.80;99.90
36444;DHT22;24692;45.642;13.806;2023-02-18T12:08:57;12.80;99.90
36444;DHT22;24692;45.642;13.806;2023-02-18T12:11:31;12.90;99.90
36444;DHT22;24692;45.642;13.806;2023-02-18T12:13:58;13.10;99.90
36444;DHT22;24692;45.642;13.806;2023-02-18T12:19:36;13.30;99.90
36444;DHT22;24692;45.642;13.806;2023-02-18T12:22:22;13.40;99.90
36444;DHT22;24692;45.642;13.806;2023-02-18T12:36:23;13.90;99.90
36444;DHT22;24692;45.642;13.806;2023-02-18T12:53:47;12.60;99.90
36444;DHT22;24692;45.642;13.806;2023-02-18T13:08:09;12.90;99.90
36444;DHT22;24692;45.642;13.806;2023-02-18T13:13:36;13.90;99.90
36444;DHT22;24692;45.642;13.806;2023-02-18T13:16:12;13.90;99.90
36444;DHT22;24692;45.642;13.806;2023-02-18T13:18:41;14.20;99.90
36444;DHT22;24692;45.642;13.806;2023-02-18T13:21:13;13.50;99.90
36444;DHT22;24692;45.642;13.806;2023-02-18T13:26:15;13.20;99.90
36444;DHT22;24692;45.642;13.806;2023-02-18T13:28:55;13.30;99.90
36444;DHT22;24692;45.642;13.806;2023-02-18T13:37:27;15.10;99.90
36444;DHT22;24692;45.642;13.806;2023-02-18T13:39:56;15.00;99.90
36444;DHT22;24692;45.642;13.806;2023-02-18T13:42:27;15.80;99.90
36444;DHT22;24692;45.642;13.806;2023-02-18T13:47:42;14.80;99.90
36444;DHT22;24692;45.642;13.806;2023-02-18T13:55:33;13.90;99.90
36444;DHT22;24692;45.642;13.806;2023-02-18T13:58:00;14.30;99.90
36444;DHT22;24692;45.642;13.806;2023-02-18T14:00:35;14.30;99.90
36444;DHT22;24692;45.642;13.806;2023-02-18T14:06:13;14.10;99.90
36444;DHT22;24692;45.642;13.806;2023-02-18T14:08:39;14.70;99.90
36444;DHT22;24692;45.642;13.806;2023-02-18T14:13:45;15.60;99.90
36444;DHT22;24692;45.642;13.806;2023-02-18T14:16:11;14.90;99.90
36444;DHT22;24692;45.642;13.806;2023-02-18T14:47:10;11.40;99.90
36444;DHT22;24692;45.642;13.806;2023-02-18T14:49:51;11.10;99.90
36444;DHT22;24692;45.642;13.806;2023-02-18T14:52:29;11.20;99.90
36444;DHT22;24692;45.642;13.806;2023-02-18T14:54:55;11.10;99.90
36444;DHT22;24692;45.642;13.806;2023-02-18T14:57:33;11.10;99.90
36444;DHT22;24692;45.642;13.806;2023-02-18T15:00:00;10.90;99.90
36444;DHT22;24692;45.642;13.806;2023-02-18T15:02:27;10.90;99.90
36444;DHT22;24692;45.642;13.806;2023-02-18T15:05:10;10.70;99.90
36444;DHT22;24692;45.642;13.806;2023-02-18T15:07:36;10.60;99.90
36444;DHT22;24692;45.642;13.806;2023-02-18T15:10:02;10.60;99.90
36444;DHT22;24692;45.642;13.806;2023-02-18T15:12:28;10.60;99.90
36444;DHT22;24692;45.642;13.806;2023-02-18T15:14:58;10.90;99.90
36444;DHT22;24692;45.642;13.806;2023-02-18T15:17:27;10.90;99.90
36444;DHT22;24692;45.642;13.806;2023-02-18T15:19:55;11.00;99.90
36444;DHT22;24692;45.642;13.806;2023-02-18T15:22:23;10.90;99.90
36444;DHT22;24692;45.642;13.806;2023-02-18T15:24:51;10.80;99.90
36444;DHT22;24692;45.642;13.806;2023-02-18T15:27:23;10.60;99.90
36444;DHT22;24692;45.642;13.806;2023-02-18T15:30:17;10.40;99.90
36444;DHT22;24692;45.642;13.806;2023-02-18T15:32:54;10.30;99.90
36444;DHT22;24692;45.642;13.806;2023-02-18T15:35:22;10.30;99.90
36444;DHT22;24692;45.642;13.806;2023-02-18T15:37:52;10.30;99.90
36444;DHT22;24692;45.642;13.806;2023-02-18T15:40:19;10.20;99.90
36444;DHT22;24692;45.642;13.806;2023-02-18T15:42:49;10.20;99.90
36444;DHT22;24692;45.642;13.806;2023-02-18T15:45:22;10.30;99.90
36444;DHT22;24692;45.642;13.806;2023-02-18T15:47:51;10.20;99.90
36444;DHT22;24692;45.642;13.806;2023-02-18T15:50:37;10.20;99.90
36444;DHT22;24692;45.642;13.806;2023-02-18T15:53:15;10.30;99.90
36444;DHT22;24692;45.642;13.806;2023-02-18T15:55:44;10.30;99.90
36444;DHT22;24692;45.642;13.806;2023-02-18T15:58:33;10.30;99.90
36444;DHT22;24692;45.642;13.806;2023-02-18T16:01:02;10.30;99.90
36444;DHT22;24692;45.642;13.806;2023-02-18T16:11:23;10.30;99.90
36444;DHT22;24692;45.642;13.806;2023-02-18T16:13:49;10.20;99.90
36444;DHT22;24692;45.642;13.806;2023-02-18T16:16:30;10.20;99.90
36444;DHT22;24692;45.642;13.806;2023-02-18T16:18:58;10.20;99.90
36444;DHT22;24692;45.642;13.806;2023-02-18T16:21:35;10.20;99.90
36444;DHT22;24692;45.642;13.806;2023-02-18T16:24:19;10.00;99.90
36444;DHT22;24692;45.642;13.806;2023-02-18T16:26:49;9.90;99.90
36444;DHT22;24692;45.642;13.806;2023-02-18T16:29:44;10.00;99.90
36444;DHT22;24692;45.642;13.806;2023-02-18T16:32:14;10.10;99.90
36444;DHT22;24692;45.642;13.806;2023-02-18T16:34:40;10.10;99.90
36444;DHT22;24692;45.642;13.806;2023-02-18T16:37:08;10.10;99.90
36444;DHT22;24692;45.642;13.806;2023-02-18T16:39:52;10.20;99.90
36444;DHT22;24692;45.642;13.806;2023-02-18T16:42:19;10.10;99.90
36444;DHT22;24692;45.642;13.806;2023-02-18T16:44:45;10.00;99.90
36444;DHT22;24692;45.642;13.806;2023-02-18T16:47:14;10.00;99.90
36444;DHT22;24692;45.642;13.806;2023-02-18T16:49:44;10.00;99.90
36444;DHT22;24692;45.642;13.806;2023-02-18T16:52:12;9.90;99.90
36444;DHT22;24692;45.642;13.806;2023-02-18T16:54:39;9.90;99.90
36444;DHT22;24692;45.642;13.806;2023-02-18T16:57:05;9.80;99.90
36444;DHT22;24692;45.642;13.806;2023-02-18T16:59:31;9.70;99.90
36444;DHT22;24692;45.642;13.806;2023-02-18T17:01:56;9.60;99.90
36444;DHT22;24692;45.642;13.806;2023-02-18T17:04:22;9.60;99.90
36444;DHT22;24692;45.642;13.806;2023-02-18T17:06:48;9.60;99.90
36444;DHT22;24692;45.642;13.806;2023-02-18T17:09:19;9.60;99.90
36444;DHT22;24692;45.642;13.806;2023-02-18T17:11:48;9.60;99.90
36444;DHT22;24692;45.642;13.806;2023-02-18T17:14:16;9.70;99.90
36444;DHT22;24692;45.642;13.806;2023-02-18T17:16:46;9.60;99.90
36444;DHT22;24692;45.642;13.806;2023-02-18T17:19:12;9.60;99.90
36444;DHT22;24692;45.642;13.806;2023-02-18T17:21:38;9.50;99.90
36444;DHT22;24692;45.642;13.806;2023-02-18T17:24:04;9.50;99.90
36444;DHT22;24692;45.642;13.806;2023-02-18T17:26:30;9.60;99.90
36444;DHT22;24692;45.642;13.806;2023-02-18T17:28:58;9.70;99.90
36444;DHT22;24692;45.642;13.806;2023-02-18T17:31:27;9.70;99.90
36444;DHT22;24692;45.642;13.806;2023-02-18T17:33:55;9.80;99.90
36444;DHT22;24692;45.642;13.806;2023-02-18T17:36:22;9.70;99.90
36444;DHT22;24692;45.642;13.806;2023-02-18T17:38:48;9.80;99.90
36444;DHT22;24692;45.642;13.806;2023-02-18T17:41:14;9.70;99.90
36444;DHT22;24692;45.642;13.806;2023-02-18T17:43:40;9.70;99.90
36444;DHT22;24692;45.642;13.806;2023-02-18T17:46:10;9.70;99.90
36444;DHT22;24692;45.642;13.806;2023-02-18T17:48:37;9.60;99.90
36444;DHT22;24692;45.642;13.806;2023-02-18T17:51:02;9.70;99.90
36444;DHT22;24692;45.642;13.806;2023-02-18T17:53:30;9.60;99.90
36444;DHT22;24692;45.642;13.806;2023-02-18T17:55:56;9.50;99.90
36444;DHT22;24692;45.642;13.806;2023-02-18T17:58:21;9.50;99.90
36444;DHT22;24692;45.642;13.806;2023-02-18T18:00:53;9.60;99.90
36444;DHT22;24692;45.642;13.806;2023-02-18T18:03:19;9.50;99.90
36444;DHT22;24692;45.642;13.806;2023-02-18T18:05:47;9.60;99.90
36444;DHT22;24692;45.642;13.806;2023-02-18T18:08:13;9.50;99.90
36444;DHT22;24692;45.642;13.806;2023-02-18T18:10:44;9.50;99.90
36444;DHT22;24692;45.642;13.806;2023-02-18T18:13:29;9.60;99.90
36444;DHT22;24692;45.642;13.806;2023-02-18T18:15:57;9.40;99.90
36444;DHT22;24692;45.642;13.806;2023-02-18T18:18:23;9.20;99.90
36444;DHT22;24692;45.642;13.806;2023-02-18T18:20:55;9.10;99.90
36444;DHT22;24692;45.642;13.806;2023-02-18T18:23:21;9.10;99.90
36444;DHT22;24692;45.642;13.806;2023-02-18T18:25:51;9.10;99.90
36444;DHT22;24692;45.642;13.806;2023-02-18T18:28:18;9.10;99.90